sensor_id;sensor_type;location;lat;lon;timestamp;temperature;humidity
33271;DHT22;53180;51.344;6.152;2023-05-07T00:01:19;14.80;92.00
33271;DHT22;53180;51.344;6.152;2023-05-07T00:03:48;14.80;92.00
33271;DHT22;53180;51.344;6.152;2023-05-07T00:06:16;14.80;92.10
33271;DHT22;53180;51.344;6.152;2023-05-07T00:08:44;14.80;92.00
33271;DHT22;53180;51.344;6.152;2023-05-07T00:11:13;14.70;92.00
33271;DHT22;53180;51.344;6.152;2023-05-07T00:13:41;14.70;92.00
33271;DHT22;53180;51.344;6.152;2023-05-07T00:16:09;14.70;92.10
33271;DHT22;53180;51.344;6.152;2023-05-07T00:18:39;14.70;92.00
33271;DHT22;53180;51.344;6.152;2023-05-07T00:21:07;14.70;92.00
33271;DHT22;53180;51.344;6.152;2023-05-07T00:23:36;14.60;91.90
33271;DHT22;53180;51.344;6.152;2023-05-07T00:26:04;14.60;91.90
33271;DHT22;53180;51.344;6.152;2023-05-07T00:28:32;14.60;91.90
33271;DHT22;53180;51.344;6.152;2023-05-07T00:31:01;14.50;91.90
33271;DHT22;53180;51.344;6.152;2023-05-07T00:33:29;14.50;91.90
33271;DHT22;53180;51.344;6.152;2023-05-07T00:35:59;14.50;91.90
33271;DHT22;53180;51.344;6.152;2023-05-07T00:38:28;14.50;91.90
33271;DHT22;53180;51.344;6.152;2023-05-07T00:40:57;14.50;92.00
33271;DHT22;53180;51.344;6.152;2023-05-07T00:43:25;14.40;92.00
33271;DHT22;53180;51.344;6.152;2023-05-07T00:45:54;14.50;92.10
33271;DHT22;53180;51.344;6.152;2023-05-07T00:48:22;14.40;92.10
33271;DHT22;53180;51.344;6.152;2023-05-07T00:50:51;14.50;92.30
33271;DHT22;53180;51.344;6.152;2023-05-07T00:53:21;14.50;92.10
33271;DHT22;53180;51.344;6.152;2023-05-07T00:55:49;14.50;92.30
33271;DHT22;53180;51.344;6.152;2023-05-07T00:58:17;14.50;92.20
33271;DHT22;53180;51.344;6.152;2023-05-07T01:00:46;14.50;92.30
33271;DHT22;53180;51.344;6.152;2023-05-07T01:03:14;14.50;92.20
33271;DHT22;53180;51.344;6.152;2023-05-07T01:05:44;14.50;92.20
33271;DHT22;53180;51.344;6.152;2023-05-07T01:08:15;14.50;92.30
33271;DHT22;53180;51.344;6.152;2023-05-07T01:10:46;14.50;92.20
33271;DHT22;53180;51.344;6.152;2023-05-07T01:13:15;14.50;92.00
33271;DHT22;53180;51.344;6.152;2023-05-07T01:15:43;14.50;92.10
33271;DHT22;53180;51.344;6.152;2023-05-07T01:18:12;14.60;92.30
33271;DHT22;53180;51.344;6.152;2023-05-07T01:20:42;14.50;92.30
33271;DHT22;53180;51.344;6.152;2023-05-07T01:23:11;14.50;92.40
33271;DHT22;53180;51.344;6.152;2023-05-07T01:25:40;14.60;92.30
33271;DHT22;53180;51.344;6.152;2023-05-07T01:28:08;14.50;92.30
33271;DHT22;53180;51.344;6.152;2023-05-07T01:30:45;14.60;92.50
33271;DHT22;53180;51.344;6.152;2023-05-07T01:33:20;14.60;92.50
33271;DHT22;53180;51.344;6.152;2023-05-07T01:35:51;14.60;92.60
33271;DHT22;53180;51.344;6.152;2023-05-07T01:38:22;14.50;92.60
33271;DHT22;53180;51.344;6.152;2023-05-07T01:40:51;14.50;92.60
33271;DHT22;53180;51.344;6.152;2023-05-07T01:43:21;14.50;92.60
33271;DHT22;53180;51.344;6.152;2023-05-07T01:45:49;14.50;92.50
33271;DHT22;53180;51.344;6.152;2023-05-07T01:48:18;14.50;92.60
33271;DHT22;53180;51.344;6.152;2023-05-07T01:50:48;14.50;92.40
33271;DHT22;53180;51.344;6.152;2023-05-07T01:53:16;14.40;92.30
33271;DHT22;53180;51.344;6.152;2023-05-07T01:55:46;14.40;92.40
33271;DHT22;53180;51.344;6.152;2023-05-07T01:58:14;14.40;92.40
33271;DHT22;53180;51.344;6.152;2023-05-07T02:00:42;14.40;92.50
33271;DHT22;53180;51.344;6.152;2023-05-07T02:03:10;14.40;92.40
33271;DHT22;53180;51.344;6.152;2023-05-07T02:05:39;14.40;92.30
33271;DHT22;53180;51.344;6.152;2023-05-07T02:08:07;14.40;92.30
33271;DHT22;53180;51.344;6.152;2023-05-07T02:10:35;14.30;92.20
33271;DHT22;53180;51.344;6.152;2023-05-07T02:13:05;14.30;92.20
33271;DHT22;53180;51.344;6.152;2023-05-07T02:15:33;14.30;92.20
33271;DHT22;53180;51.344;6.152;2023-05-07T02:18:03;14.20;92.20
33271;DHT22;53180;51.344;6.152;2023-05-07T02:20:33;14.20;92.20
33271;DHT22;53180;51.344;6.152;2023-05-07T02:23:01;14.20;92.30
33271;DHT22;53180;51.344;6.152;2023-05-07T02:25:29;14.20;92.20
33271;DHT22;53180;51.344;6.152;2023-05-07T02:27:58;14.20;92.10
33271;DHT22;53180;51.344;6.152;2023-05-07T02:30:28;14.10;92.10
33271;DHT22;53180;51.344;6.152;2023-05-07T02:32:57;14.10;92.10
33271;DHT22;53180;51.344;6.152;2023-05-07T02:35:25;14.00;92.00
33271;DHT22;53180;51.344;6.152;2023-05-07T02:37:53;14.00;92.20
33271;DHT22;53180;51.344;6.152;2023-05-07T02:40:22;14.00;91.90
33271;DHT22;53180;51.344;6.152;2023-05-07T02:42:50;13.90;91.70
33271;DHT22;53180;51.344;6.152;2023-05-07T02:45:18;13.80;91.70
33271;DHT22;53180;51.344;6.152;2023-05-07T02:47:48;13.80;91.80
33271;DHT22;53180;51.344;6.152;2023-05-07T02:50:16;13.80;92.00
33271;DHT22;53180;51.344;6.152;2023-05-07T02:52:44;13.80;92.00
33271;DHT22;53180;51.344;6.152;2023-05-07T02:55:14;13.90;92.20
33271;DHT22;53180;51.344;6.152;2023-05-07T02:57:42;14.00;92.20
33271;DHT22;53180;51.344;6.152;2023-05-07T03:00:12;14.00;92.20
33271;DHT22;53180;51.344;6.152;2023-05-07T03:02:41;14.00;92.20
33271;DHT22;53180;51.344;6.152;2023-05-07T03:05:11;14.00;92.20
33271;DHT22;53180;51.344;6.152;2023-05-07T03:07:41;13.90;91.60
33271;DHT22;53180;51.344;6.152;2023-05-07T03:10:11;13.90;91.90
33271;DHT22;53180;51.344;6.152;2023-05-07T03:12:40;13.90;92.10
33271;DHT22;53180;51.344;6.152;2023-05-07T03:15:09;13.90;92.20
33271;DHT22;53180;51.344;6.152;2023-05-07T03:17:39;14.00;92.30
33271;DHT22;53180;51.344;6.152;2023-05-07T03:20:08;14.00;92.30
33271;DHT22;53180;51.344;6.152;2023-05-07T03:22:39;14.00;92.30
33271;DHT22;53180;51.344;6.152;2023-05-07T03:25:09;14.00;92.30
33271;DHT22;53180;51.344;6.152;2023-05-07T03:27:37;14.00;92.40
33271;DHT22;53180;51.344;6.152;2023-05-07T03:30:07;13.90;92.30
33271;DHT22;53180;51.344;6.152;2023-05-07T03:32:36;14.00;92.40
33271;DHT22;53180;51.344;6.152;2023-05-07T03:35:05;13.90;92.40
33271;DHT22;53180;51.344;6.152;2023-05-07T03:37:34;13.90;92.40
33271;DHT22;53180;51.344;6.152;2023-05-07T03:40:04;13.90;92.40
33271;DHT22;53180;51.344;6.152;2023-05-07T03:42:34;14.00;92.40
33271;DHT22;53180;51.344;6.152;2023-05-07T03:45:03;14.00;92.40
33271;DHT22;53180;51.344;6.152;2023-05-07T03:47:32;14.00;92.40
33271;DHT22;53180;51.344;6.152;2023-05-07T03:50:00;14.00;92.40
33271;DHT22;53180;51.344;6.152;2023-05-07T03:52:29;14.00;92.40
33271;DHT22;53180;51.344;6.152;2023-05-07T03:54:57;14.00;92.40
33271;DHT22;53180;51.344;6.152;2023-05-07T03:57:27;14.00;92.40
33271;DHT22;53180;51.344;6.152;2023-05-07T03:59:55;14.00;92.40
33271;DHT22;53180;51.344;6.152;2023-05-07T04:02:23;14.00;92.50
33271;DHT22;53180;51.344;6.152;2023-05-07T04:04:52;14.00;92.40
33271;DHT22;53180;51.344;6.152;2023-05-07T04:07:20;14.00;92.50
33271;DHT22;53180;51.344;6.152;2023-05-07T04:09:50;14.00;92.50
33271;DHT22;53180;51.344;6.152;2023-05-07T04:12:18;14.00;92.50
33271;DHT22;53180;51.344;6.152;2023-05-07T04:14:47;14.00;92.50
33271;DHT22;53180;51.344;6.152;2023-05-07T04:17:16;14.00;92.50
33271;DHT22;53180;51.344;6.152;2023-05-07T04:19:44;14.00;92.50
33271;DHT22;53180;51.344;6.152;2023-05-07T04:22:12;14.00;92.50
33271;DHT22;53180;51.344;6.152;2023-05-07T04:24:40;14.00;92.50
33271;DHT22;53180;51.344;6.152;2023-05-07T04:27:09;14.00;92.60
33271;DHT22;53180;51.344;6.152;2023-05-07T04:29:37;14.00;92.60
33271;DHT22;53180;51.344;6.152;2023-05-07T04:32:10;14.00;92.50
33271;DHT22;53180;51.344;6.152;2023-05-07T04:34:39;14.00;92.60
33271;DHT22;53180;51.344;6.152;2023-05-07T04:37:07;14.00;92.60
33271;DHT22;53180;51.344;6.152;2023-05-07T04:39:36;14.00;92.70
33271;DHT22;53180;51.344;6.152;2023-05-07T04:42:04;14.00;92.40
33271;DHT22;53180;51.344;6.152;2023-05-07T04:44:34;14.00;92.50
33271;DHT22;53180;51.344;6.152;2023-05-07T04:47:03;14.00;92.70
33271;DHT22;53180;51.344;6.152;2023-05-07T04:49:33;14.00;92.60
33271;DHT22;53180;51.344;6.152;2023-05-07T04:52:01;14.10;92.70
33271;DHT22;53180;51.344;6.152;2023-05-07T04:54:30;14.00;92.70
33271;DHT22;53180;51.344;6.152;2023-05-07T04:56:58;14.10;92.70
33271;DHT22;53180;51.344;6.152;2023-05-07T04:59:26;14.10;92.70
33271;DHT22;53180;51.344;6.152;2023-05-07T05:01:54;14.10;92.70
33271;DHT22;53180;51.344;6.152;2023-05-07T05:04:23;14.10;92.70
33271;DHT22;53180;51.344;6.152;2023-05-07T05:06:52;14.10;92.80
33271;DHT22;53180;51.344;6.152;2023-05-07T05:09:20;14.20;92.50
33271;DHT22;53180;51.344;6.152;2023-05-07T05:11:49;14.20;92.80
33271;DHT22;53180;51.344;6.152;2023-05-07T05:14:17;14.20;92.80
33271;DHT22;53180;51.344;6.152;2023-05-07T05:16:45;14.20;92.80
33271;DHT22;53180;51.344;6.152;2023-05-07T05:19:14;14.20;92.80
33271;DHT22;53180;51.344;6.152;2023-05-07T05:21:42;14.30;92.80
33271;DHT22;53180;51.344;6.152;2023-05-07T05:24:11;14.30;92.70
33271;DHT22;53180;51.344;6.152;2023-05-07T05:26:40;14.30;92.50
33271;DHT22;53180;51.344;6.152;2023-05-07T05:29:08;14.40;92.70
33271;DHT22;53180;51.344;6.152;2023-05-07T05:31:37;14.40;92.70
33271;DHT22;53180;51.344;6.152;2023-05-07T05:34:05;14.50;92.70
33271;DHT22;53180;51.344;6.152;2023-05-07T05:36:33;14.50;92.40
33271;DHT22;53180;51.344;6.152;2023-05-07T05:39:01;14.50;92.50
33271;DHT22;53180;51.344;6.152;2023-05-07T05:41:31;14.60;92.40
33271;DHT22;53180;51.344;6.152;2023-05-07T05:43:59;14.60;92.50
33271;DHT22;53180;51.344;6.152;2023-05-07T05:46:27;14.60;92.30
33271;DHT22;53180;51.344;6.152;2023-05-07T05:48:56;14.60;92.30
33271;DHT22;53180;51.344;6.152;2023-05-07T05:51:24;14.70;92.30
33271;DHT22;53180;51.344;6.152;2023-05-07T05:53:53;14.70;92.40
33271;DHT22;53180;51.344;6.152;2023-05-07T05:56:21;14.70;92.30
33271;DHT22;53180;51.344;6.152;2023-05-07T05:58:51;14.70;92.30
33271;DHT22;53180;51.344;6.152;2023-05-07T06:01:19;14.70;92.30
33271;DHT22;53180;51.344;6.152;2023-05-07T06:03:47;14.70;92.40
33271;DHT22;53180;51.344;6.152;2023-05-07T06:06:16;14.70;92.40
33271;DHT22;53180;51.344;6.152;2023-05-07T06:08:44;14.80;92.20
33271;DHT22;53180;51.344;6.152;2023-05-07T06:11:12;14.80;92.50
33271;DHT22;53180;51.344;6.152;2023-05-07T06:13:40;14.80;92.60
33271;DHT22;53180;51.344;6.152;2023-05-07T06:16:10;14.90;92.40
33271;DHT22;53180;51.344;6.152;2023-05-07T06:18:38;14.80;92.30
33271;DHT22;53180;51.344;6.152;2023-05-07T06:21:07;14.90;92.30
33271;DHT22;53180;51.344;6.152;2023-05-07T06:23:35;14.80;91.90
33271;DHT22;53180;51.344;6.152;2023-05-07T06:26:03;14.80;91.90
33271;DHT22;53180;51.344;6.152;2023-05-07T06:28:32;14.90;92.00
33271;DHT22;53180;51.344;6.152;2023-05-07T06:31:14;14.80;91.80
33271;DHT22;53180;51.344;6.152;2023-05-07T06:33:44;14.90;92.10
33271;DHT22;53180;51.344;6.152;2023-05-07T06:36:13;15.00;92.40
33271;DHT22;53180;51.344;6.152;2023-05-07T06:38:41;15.00;92.60
33271;DHT22;53180;51.344;6.152;2023-05-07T06:41:09;15.00;92.50
33271;DHT22;53180;51.344;6.152;2023-05-07T06:43:37;15.00;92.30
33271;DHT22;53180;51.344;6.152;2023-05-07T06:46:07;15.10;92.30
33271;DHT22;53180;51.344;6.152;2023-05-07T06:48:36;15.10;92.40
33271;DHT22;53180;51.344;6.152;2023-05-07T06:51:05;15.20;92.20
33271;DHT22;53180;51.344;6.152;2023-05-07T06:53:33;15.30;92.40
33271;DHT22;53180;51.344;6.152;2023-05-07T06:56:02;15.20;92.00
33271;DHT22;53180;51.344;6.152;2023-05-07T06:58:30;15.30;92.00
33271;DHT22;53180;51.344;6.152;2023-05-07T07:00:58;15.30;91.60
33271;DHT22;53180;51.344;6.152;2023-05-07T07:03:27;15.30;91.20
33271;DHT22;53180;51.344;6.152;2023-05-07T07:05:56;15.30;91.40
33271;DHT22;53180;51.344;6.152;2023-05-07T07:08:24;15.30;91.30
33271;DHT22;53180;51.344;6.152;2023-05-07T07:10:53;15.30;91.30
33271;DHT22;53180;51.344;6.152;2023-05-07T07:13:21;15.40;91.60
33271;DHT22;53180;51.344;6.152;2023-05-07T07:15:51;15.50;91.90
33271;DHT22;53180;51.344;6.152;2023-05-07T07:18:19;15.60;92.10
33271;DHT22;53180;51.344;6.152;2023-05-07T07:20:48;15.60;92.10
33271;DHT22;53180;51.344;6.152;2023-05-07T07:23:17;15.70;92.20
33271;DHT22;53180;51.344;6.152;2023-05-07T07:25:48;15.70;91.90
33271;DHT22;53180;51.344;6.152;2023-05-07T07:28:16;15.80;91.80
33271;DHT22;53180;51.344;6.152;2023-05-07T07:30:45;15.80;91.80
33271;DHT22;53180;51.344;6.152;2023-05-07T07:33:13;15.80;91.80
33271;DHT22;53180;51.344;6.152;2023-05-07T07:35:42;15.80;91.60
33271;DHT22;53180;51.344;6.152;2023-05-07T07:38:10;15.90;91.60
33271;DHT22;53180;51.344;6.152;2023-05-07T07:40:40;15.90;91.50
33271;DHT22;53180;51.344;6.152;2023-05-07T07:43:10;15.90;91.60
33271;DHT22;53180;51.344;6.152;2023-05-07T07:45:38;16.00;91.60
33271;DHT22;53180;51.344;6.152;2023-05-07T07:48:07;16.10;91.30
33271;DHT22;53180;51.344;6.152;2023-05-07T07:50:36;16.10;91.20
33271;DHT22;53180;51.344;6.152;2023-05-07T07:53:11;16.20;90.90
33271;DHT22;53180;51.344;6.152;2023-05-07T07:55:40;16.20;91.00
33271;DHT22;53180;51.344;6.152;2023-05-07T07:58:11;16.20;90.90
33271;DHT22;53180;51.344;6.152;2023-05-07T08:00:39;16.20;91.10
33271;DHT22;53180;51.344;6.152;2023-05-07T08:03:09;16.20;91.00
33271;DHT22;53180;51.344;6.152;2023-05-07T08:05:38;16.30;90.90
33271;DHT22;53180;51.344;6.152;2023-05-07T08:08:06;16.30;90.80
33271;DHT22;53180;51.344;6.152;2023-05-07T08:10:35;16.40;90.90
33271;DHT22;53180;51.344;6.152;2023-05-07T08:13:07;16.40;90.50
33271;DHT22;53180;51.344;6.152;2023-05-07T08:15:35;16.50;90.00
33271;DHT22;53180;51.344;6.152;2023-05-07T08:18:04;16.60;90.20
33271;DHT22;53180;51.344;6.152;2023-05-07T08:20:32;16.60;90.40
33271;DHT22;53180;51.344;6.152;2023-05-07T08:23:05;16.70;90.30
33271;DHT22;53180;51.344;6.152;2023-05-07T08:25:34;16.70;89.90
33271;DHT22;53180;51.344;6.152;2023-05-07T08:28:03;16.80;90.20
33271;DHT22;53180;51.344;6.152;2023-05-07T08:30:36;16.90;90.30
33271;DHT22;53180;51.344;6.152;2023-05-07T08:33:04;17.00;90.00
33271;DHT22;53180;51.344;6.152;2023-05-07T08:35:32;17.10;89.50
33271;DHT22;53180;51.344;6.152;2023-05-07T08:38:01;17.20;89.50
33271;DHT22;53180;51.344;6.152;2023-05-07T08:40:29;17.30;89.60
33271;DHT22;53180;51.344;6.152;2023-05-07T08:43:03;17.40;88.90
33271;DHT22;53180;51.344;6.152;2023-05-07T08:45:35;17.40;88.70
33271;DHT22;53180;51.344;6.152;2023-05-07T08:48:16;17.50;87.10
33271;DHT22;53180;51.344;6.152;2023-05-07T08:50:45;17.50;87.20
33271;DHT22;53180;51.344;6.152;2023-05-07T08:53:14;17.70;87.40
33271;DHT22;53180;51.344;6.152;2023-05-07T08:55:42;17.80;86.90
33271;DHT22;53180;51.344;6.152;2023-05-07T08:58:11;17.80;87.10
33271;DHT22;53180;51.344;6.152;2023-05-07T09:00:42;17.90;87.20
33271;DHT22;53180;51.344;6.152;2023-05-07T09:03:10;17.90;86.40
33271;DHT22;53180;51.344;6.152;2023-05-07T09:05:39;17.90;87.20
33271;DHT22;53180;51.344;6.152;2023-05-07T09:08:08;17.90;86.50
33271;DHT22;53180;51.344;6.152;2023-05-07T09:10:36;17.90;86.30
33271;DHT22;53180;51.344;6.152;2023-05-07T09:13:04;18.10;86.10
33271;DHT22;53180;51.344;6.152;2023-05-07T09:15:32;18.10;86.20
33271;DHT22;53180;51.344;6.152;2023-05-07T09:18:02;18.30;84.90
33271;DHT22;53180;51.344;6.152;2023-05-07T09:20:31;18.30;85.10
33271;DHT22;53180;51.344;6.152;2023-05-07T09:22:59;18.30;85.00
33271;DHT22;53180;51.344;6.152;2023-05-07T09:25:28;18.20;84.90
33271;DHT22;53180;51.344;6.152;2023-05-07T09:27:57;18.20;85.50
33271;DHT22;53180;51.344;6.152;2023-05-07T09:30:27;18.20;83.60
33271;DHT22;53180;51.344;6.152;2023-05-07T09:32:57;18.30;84.30
33271;DHT22;53180;51.344;6.152;2023-05-07T09:35:27;18.30;84.50
33271;DHT22;53180;51.344;6.152;2023-05-07T09:37:57;18.20;85.10
33271;DHT22;53180;51.344;6.152;2023-05-07T09:40:30;18.30;84.10
33271;DHT22;53180;51.344;6.152;2023-05-07T09:43:10;18.30;84.70
33271;DHT22;53180;51.344;6.152;2023-05-07T09:45:39;18.50;84.70
33271;DHT22;53180;51.344;6.152;2023-05-07T09:48:09;18.50;84.70
33271;DHT22;53180;51.344;6.152;2023-05-07T09:50:45;18.60;84.50
33271;DHT22;53180;51.344;6.152;2023-05-07T09:53:17;18.70;84.50
33271;DHT22;53180;51.344;6.152;2023-05-07T09:55:46;18.80;83.90
33271;DHT22;53180;51.344;6.152;2023-05-07T09:58:15;18.80;83.60
33271;DHT22;53180;51.344;6.152;2023-05-07T10:00:44;18.90;84.40
33271;DHT22;53180;51.344;6.152;2023-05-07T10:03:13;19.00;83.40
33271;DHT22;53180;51.344;6.152;2023-05-07T10:05:44;19.00;84.00
33271;DHT22;53180;51.344;6.152;2023-05-07T10:08:14;19.00;80.20
33271;DHT22;53180;51.344;6.152;2023-05-07T10:10:44;19.00;78.60
33271;DHT22;53180;51.344;6.152;2023-05-07T10:13:13;19.00;78.70
33271;DHT22;53180;51.344;6.152;2023-05-07T10:15:41;19.00;76.10
33271;DHT22;53180;51.344;6.152;2023-05-07T10:18:11;18.90;75.70
33271;DHT22;53180;51.344;6.152;2023-05-07T10:20:43;18.80;77.20
33271;DHT22;53180;51.344;6.152;2023-05-07T10:23:15;18.70;76.10
33271;DHT22;53180;51.344;6.152;2023-05-07T10:25:48;18.70;76.70
33271;DHT22;53180;51.344;6.152;2023-05-07T10:28:18;18.60;77.70
33271;DHT22;53180;51.344;6.152;2023-05-07T10:30:56;18.60;77.10
33271;DHT22;53180;51.344;6.152;2023-05-07T10:33:31;18.70;79.00
33271;DHT22;53180;51.344;6.152;2023-05-07T10:36:01;18.70;77.70
33271;DHT22;53180;51.344;6.152;2023-05-07T10:38:31;18.70;79.20
33271;DHT22;53180;51.344;6.152;2023-05-07T10:40:59;18.80;79.30
33271;DHT22;53180;51.344;6.152;2023-05-07T10:43:39;18.70;79.50
33271;DHT22;53180;51.344;6.152;2023-05-07T10:46:14;18.80;80.20
33271;DHT22;53180;51.344;6.152;2023-05-07T10:49:11;18.80;79.60
33271;DHT22;53180;51.344;6.152;2023-05-07T10:51:41;18.80;79.60
33271;DHT22;53180;51.344;6.152;2023-05-07T10:54:22;18.90;78.70
33271;DHT22;53180;51.344;6.152;2023-05-07T10:56:53;19.00;77.40
33271;DHT22;53180;51.344;6.152;2023-05-07T10:59:35;19.00;77.60
33271;DHT22;53180;51.344;6.152;2023-05-07T11:02:09;19.10;76.20
33271;DHT22;53180;51.344;6.152;2023-05-07T11:04:41;19.20;77.30
33271;DHT22;53180;51.344;6.152;2023-05-07T11:07:25;19.20;77.50
33271;DHT22;53180;51.344;6.152;2023-05-07T11:10:03;19.20;80.30
33271;DHT22;53180;51.344;6.152;2023-05-07T11:12:54;19.30;79.80
33271;DHT22;53180;51.344;6.152;2023-05-07T11:15:40;19.50;77.90
33271;DHT22;53180;51.344;6.152;2023-05-07T11:18:11;19.50;76.40
33271;DHT22;53180;51.344;6.152;2023-05-07T11:20:54;19.70;72.30
33271;DHT22;53180;51.344;6.152;2023-05-07T11:23:56;19.50;74.20
33271;DHT22;53180;51.344;6.152;2023-05-07T11:26:30;19.60;70.90
33271;DHT22;53180;51.344;6.152;2023-05-07T11:29:00;19.50;73.50
33271;DHT22;53180;51.344;6.152;2023-05-07T11:31:28;19.30;77.00
33271;DHT22;53180;51.344;6.152;2023-05-07T11:33:57;19.30;79.00
33271;DHT22;53180;51.344;6.152;2023-05-07T11:36:30;19.30;74.60
33271;DHT22;53180;51.344;6.152;2023-05-07T11:39:01;19.30;74.70
33271;DHT22;53180;51.344;6.152;2023-05-07T11:41:34;19.40;75.20
33271;DHT22;53180;51.344;6.152;2023-05-07T11:44:03;19.30;77.40
33271;DHT22;53180;51.344;6.152;2023-05-07T11:46:32;19.30;78.10
33271;DHT22;53180;51.344;6.152;2023-05-07T11:49:01;19.20;78.60
33271;DHT22;53180;51.344;6.152;2023-05-07T11:51:31;19.30;75.00
33271;DHT22;53180;51.344;6.152;2023-05-07T11:54:03;19.20;75.50
33271;DHT22;53180;51.344;6.152;2023-05-07T11:56:35;19.30;76.30
33271;DHT22;53180;51.344;6.152;2023-05-07T11:59:05;19.30;76.40
33271;DHT22;53180;51.344;6.152;2023-05-07T12:01:35;19.30;75.30
33271;DHT22;53180;51.344;6.152;2023-05-07T12:04:04;19.40;73.90
33271;DHT22;53180;51.344;6.152;2023-05-07T12:06:36;19.40;72.40
33271;DHT22;53180;51.344;6.152;2023-05-07T12:09:07;19.40;74.40
33271;DHT22;53180;51.344;6.152;2023-05-07T12:11:38;19.50;74.60
33271;DHT22;53180;51.344;6.152;2023-05-07T12:14:07;19.60;71.30
33271;DHT22;53180;51.344;6.152;2023-05-07T12:16:38;19.50;72.90
33271;DHT22;53180;51.344;6.152;2023-05-07T12:19:08;19.60;69.00
33271;DHT22;53180;51.344;6.152;2023-05-07T12:21:41;19.30;73.50
33271;DHT22;53180;51.344;6.152;2023-05-07T12:24:11;19.30;72.20
33271;DHT22;53180;51.344;6.152;2023-05-07T12:26:39;19.30;75.80
33271;DHT22;53180;51.344;6.152;2023-05-07T12:29:08;19.30;74.40
33271;DHT22;53180;51.344;6.152;2023-05-07T12:31:40;19.30;74.30
33271;DHT22;53180;51.344;6.152;2023-05-07T12:34:10;19.30;73.10
33271;DHT22;53180;51.344;6.152;2023-05-07T12:36:39;19.30;72.00
33271;DHT22;53180;51.344;6.152;2023-05-07T12:39:08;19.30;73.80
33271;DHT22;53180;51.344;6.152;2023-05-07T12:41:54;19.30;74.40
33271;DHT22;53180;51.344;6.152;2023-05-07T12:44:22;19.20;75.60
33271;DHT22;53180;51.344;6.152;2023-05-07T12:46:51;19.10;75.80
33271;DHT22;53180;51.344;6.152;2023-05-07T12:49:20;19.00;78.10
33271;DHT22;53180;51.344;6.152;2023-05-07T12:51:51;19.10;75.80
33271;DHT22;53180;51.344;6.152;2023-05-07T12:54:31;19.10;75.00
33271;DHT22;53180;51.344;6.152;2023-05-07T12:57:03;19.00;77.80
33271;DHT22;53180;51.344;6.152;2023-05-07T12:59:33;19.00;77.30
33271;DHT22;53180;51.344;6.152;2023-05-07T13:02:03;19.00;76.80
33271;DHT22;53180;51.344;6.152;2023-05-07T13:04:32;19.00;75.60
33271;DHT22;53180;51.344;6.152;2023-05-07T13:07:00;19.00;76.00
33271;DHT22;53180;51.344;6.152;2023-05-07T13:09:31;18.90;77.40
33271;DHT22;53180;51.344;6.152;2023-05-07T13:11:59;18.90;76.10
33271;DHT22;53180;51.344;6.152;2023-05-07T13:14:28;18.90;76.70
33271;DHT22;53180;51.344;6.152;2023-05-07T13:16:56;18.90;77.40
33271;DHT22;53180;51.344;6.152;2023-05-07T13:19:24;18.90;76.20
33271;DHT22;53180;51.344;6.152;2023-05-07T13:21:55;18.90;76.30
33271;DHT22;53180;51.344;6.152;2023-05-07T13:24:23;18.90;76.80
33271;DHT22;53180;51.344;6.152;2023-05-07T13:26:53;18.90;76.70
33271;DHT22;53180;51.344;6.152;2023-05-07T13:29:21;18.90;72.40
33271;DHT22;53180;51.344;6.152;2023-05-07T13:31:55;18.90;72.90
33271;DHT22;53180;51.344;6.152;2023-05-07T13:34:24;19.00;72.30
33271;DHT22;53180;51.344;6.152;2023-05-07T13:36:53;18.90;74.30
33271;DHT22;53180;51.344;6.152;2023-05-07T13:39:21;19.00;73.30
33271;DHT22;53180;51.344;6.152;2023-05-07T13:41:50;19.00;71.70
33271;DHT22;53180;51.344;6.152;2023-05-07T13:44:19;18.90;74.30
33271;DHT22;53180;51.344;6.152;2023-05-07T13:46:48;18.80;74.70
33271;DHT22;53180;51.344;6.152;2023-05-07T13:49:16;18.80;75.00
33271;DHT22;53180;51.344;6.152;2023-05-07T13:51:45;18.80;74.40
33271;DHT22;53180;51.344;6.152;2023-05-07T13:54:13;18.80;76.50
33271;DHT22;53180;51.344;6.152;2023-05-07T13:56:42;18.80;76.20
33271;DHT22;53180;51.344;6.152;2023-05-07T13:59:10;18.80;77.10
33271;DHT22;53180;51.344;6.152;2023-05-07T14:01:42;18.80;73.20
33271;DHT22;53180;51.344;6.152;2023-05-07T14:04:10;18.80;74.10
33271;DHT22;53180;51.344;6.152;2023-05-07T14:06:39;18.80;75.30
33271;DHT22;53180;51.344;6.152;2023-05-07T14:09:07;18.80;76.10
33271;DHT22;53180;51.344;6.152;2023-05-07T14:11:35;18.80;76.90
33271;DHT22;53180;51.344;6.152;2023-05-07T14:14:03;18.70;76.90
33271;DHT22;53180;51.344;6.152;2023-05-07T14:16:31;18.60;78.50
33271;DHT22;53180;51.344;6.152;2023-05-07T14:19:01;18.60;79.10
33271;DHT22;53180;51.344;6.152;2023-05-07T14:21:29;18.50;79.60
33271;DHT22;53180;51.344;6.152;2023-05-07T14:23:58;18.40;80.40
33271;DHT22;53180;51.344;6.152;2023-05-07T14:26:27;18.40;79.70
33271;DHT22;53180;51.344;6.152;2023-05-07T14:28:55;18.30;79.00
33271;DHT22;53180;51.344;6.152;2023-05-07T14:31:25;18.30;78.90
33271;DHT22;53180;51.344;6.152;2023-05-07T14:33:53;18.40;80.10
33271;DHT22;53180;51.344;6.152;2023-05-07T14:36:25;18.40;79.70
33271;DHT22;53180;51.344;6.152;2023-05-07T14:38:54;18.40;79.90
33271;DHT22;53180;51.344;6.152;2023-05-07T14:41:22;18.40;80.90
33271;DHT22;53180;51.344;6.152;2023-05-07T14:43:51;18.50;78.60
33271;DHT22;53180;51.344;6.152;2023-05-07T14:46:19;18.40;79.00
33271;DHT22;53180;51.344;6.152;2023-05-07T14:48:48;18.40;78.40
33271;DHT22;53180;51.344;6.152;2023-05-07T14:51:16;18.30;77.50
33271;DHT22;53180;51.344;6.152;2023-05-07T14:53:46;18.40;77.80
33271;DHT22;53180;51.344;6.152;2023-05-07T14:56:14;18.50;80.00
33271;DHT22;53180;51.344;6.152;2023-05-07T14:58:43;18.50;79.30
33271;DHT22;53180;51.344;6.152;2023-05-07T15:01:11;18.60;79.80
33271;DHT22;53180;51.344;6.152;2023-05-07T15:03:40;18.60;80.50
33271;DHT22;53180;51.344;6.152;2023-05-07T15:06:08;18.60;79.00
33271;DHT22;53180;51.344;6.152;2023-05-07T15:08:37;18.60;78.80
33271;DHT22;53180;51.344;6.152;2023-05-07T15:11:06;18.60;80.10
33271;DHT22;53180;51.344;6.152;2023-05-07T15:13:35;18.70;79.10
33271;DHT22;53180;51.344;6.152;2023-05-07T15:16:03;18.60;79.00
33271;DHT22;53180;51.344;6.152;2023-05-07T15:18:31;18.70;79.00
33271;DHT22;53180;51.344;6.152;2023-05-07T15:21:00;18.70;78.10
33271;DHT22;53180;51.344;6.152;2023-05-07T15:23:28;18.70;77.90
33271;DHT22;53180;51.344;6.152;2023-05-07T15:25:57;18.70;77.30
33271;DHT22;53180;51.344;6.152;2023-05-07T15:28:27;18.70;76.50
33271;DHT22;53180;51.344;6.152;2023-05-07T15:30:55;18.80;76.80
33271;DHT22;53180;51.344;6.152;2023-05-07T15:33:24;18.80;77.70
33271;DHT22;53180;51.344;6.152;2023-05-07T15:35:52;18.80;76.50
33271;DHT22;53180;51.344;6.152;2023-05-07T15:38:20;18.90;76.30
33271;DHT22;53180;51.344;6.152;2023-05-07T15:40:48;18.90;76.10
33271;DHT22;53180;51.344;6.152;2023-05-07T15:43:17;18.90;76.90
33271;DHT22;53180;51.344;6.152;2023-05-07T15:45:46;18.90;76.20